createdAt,value
2019-05-01T00:01:09.999Z,32.20
2019-05-01T00:06:17.212Z,30.40
2019-05-01T00:11:20.757Z,32.93
2019-05-01T00:16:24.070Z,33.53
2019-05-01T00:21:27.533Z,34.93
2019-05-01T00:26:31.108Z,32.53
2019-05-01T00:31:34.662Z,34.50
2019-05-01T00:36:38.217Z,32.00
2019-05-01T00:41:41.763Z,32.47
2019-05-01T00:46:45.902Z,36.20
2019-05-01T00:51:49.209Z,32.37
2019-05-01T00:56:57.039Z,34.10
2019-05-01T01:02:18.350Z,37.70
2019-05-01T01:07:21.707Z,34.70
2019-05-01T01:12:25.011Z,35.93
2019-05-01T01:17:29.022Z,35.70
2019-05-01T01:22:32.578Z,34.33
2019-05-01T01:27:36.206Z,33.63
2019-05-01T01:32:39.801Z,37.93
2019-05-01T01:37:43.801Z,35.23
2019-05-01T01:42:48.945Z,35.90
2019-05-01T01:48:11.711Z,32.73
2019-05-01T01:53:17.314Z,33.87
2019-05-01T01:58:21.431Z,35.27
2019-05-01T02:03:26.602Z,38.77
2019-05-01T02:08:29.974Z,33.77
2019-05-01T02:13:33.521Z,36.30
2019-05-01T02:18:36.899Z,39.17
2019-05-01T02:23:40.209Z,39.33
2019-05-01T02:28:48.038Z,33.20
2019-05-01T02:33:52.773Z,37.70
2019-05-01T02:38:57.829Z,37.13
2019-05-01T02:44:06.937Z,37.03
2019-05-01T02:49:25.133Z,38.33
2019-05-01T02:54:28.685Z,39.87
2019-05-01T02:59:33.043Z,39.90
2019-05-01T03:04:36.645Z,36.47
2019-05-01T03:09:40.108Z,40.53
2019-05-01T03:14:45.110Z,40.23
2019-05-01T03:19:50.093Z,38.50
2019-05-01T03:24:53.702Z,39.00
2019-05-01T03:29:56.986Z,40.93
2019-05-01T03:35:00.508Z,42.50
2019-05-01T03:40:05.374Z,41.13
2019-05-01T03:45:09.035Z,43.10
2019-05-01T03:50:14.132Z,42.13
2019-05-01T03:55:17.750Z,42.30
2019-05-01T04:00:23.093Z,43.83
2019-05-01T04:05:26.482Z,44.43
2019-05-01T04:10:29.940Z,44.00
2019-05-01T04:15:33.411Z,42.03
2019-05-01T04:20:37.059Z,49.73
2019-05-01T04:25:40.344Z,43.17
2019-05-01T04:31:00.358Z,43.77
2019-05-01T04:36:11.840Z,49.10
2019-05-01T04:41:15.405Z,49.43
2019-05-01T04:46:18.815Z,53.30
2019-05-01T04:51:22.818Z,53.17
2019-05-01T04:56:26.494Z,49.40
2019-05-01T05:01:31.644Z,53.63
2019-05-01T05:06:34.945Z,51.93
2019-05-01T05:11:55.016Z,53.30
2019-05-01T05:17:08.445Z,51.53
2019-05-01T05:22:12.050Z,50.03
2019-05-01T05:27:16.312Z,54.67
2019-05-01T05:32:21.375Z,56.23
2019-05-01T05:37:35.104Z,46.70
2019-05-01T05:42:38.389Z,51.33
2019-05-01T05:47:41.921Z,50.67
2019-05-01T05:52:48.906Z,51.87
2019-05-01T05:57:57.549Z,50.07
2019-05-01T06:03:30.910Z,57.00
2019-05-01T06:08:29.627Z,56.87
2019-05-01T06:13:40.446Z,57.53
2019-05-01T06:18:45.681Z,60.60
2019-05-01T06:23:52.695Z,61.77
2019-05-01T06:29:00.738Z,64.50
2019-05-01T06:34:04.357Z,63.93
2019-05-01T06:39:11.755Z,60.73
2019-05-01T06:44:22.149Z,60.90
2019-05-01T06:49:42.154Z,68.27
2019-05-01T06:54:47.868Z,66.00
2019-05-01T06:59:50.934Z,56.53
2019-05-01T07:04:54.472Z,54.37
2019-05-01T07:09:58.956Z,75.07
2019-05-01T07:15:03.637Z,69.43
2019-05-01T07:20:11.800Z,66.23
2019-05-01T07:25:16.077Z,62.80
2019-05-01T07:30:41.593Z,64.83
2019-05-01T07:35:48.233Z,71.90
2019-05-01T07:40:51.589Z,66.33
2019-05-01T07:45:56.801Z,65.07
2019-05-01T07:51:06.848Z,62.93
2019-05-01T07:56:07.935Z,66.03
2019-05-01T08:01:20.070Z,63.33
2019-05-01T08:06:23.375Z,65.97
2019-05-01T08:11:26.677Z,61.73
2019-05-01T08:16:37.770Z,57.77
2019-05-01T08:21:46.785Z,67.67
2019-05-01T08:26:50.115Z,61.93
2019-05-01T08:31:58.863Z,55.67
2019-05-01T08:37:00.273Z,50.77
2019-05-01T08:42:07.031Z,41.90
2019-05-01T08:47:27.554Z,47.70
2019-05-01T08:52:30.604Z,45.50
2019-05-01T08:57:37.034Z,49.50
2019-05-01T09:02:41.737Z,45.03
2019-05-01T09:07:44.352Z,45.90
2019-05-01T09:12:48.780Z,46.50
2019-05-01T09:17:52.967Z,44.50
2019-05-01T09:22:59.436Z,47.77
2019-05-01T09:28:07.438Z,42.83
2019-05-01T09:33:10.737Z,48.90
2019-05-01T09:38:14.112Z,49.93
2019-05-01T09:43:17.427Z,48.17
2019-05-01T09:48:21.537Z,49.67
2019-05-01T09:53:29.859Z,50.03
2019-05-01T09:58:34.750Z,51.20
2019-05-01T10:03:38.372Z,54.77
2019-05-01T10:08:41.989Z,57.63
2019-05-01T10:13:59.724Z,59.90
2019-05-01T10:19:03.387Z,70.23
2019-05-01T10:24:07.030Z,61.13
2019-05-01T10:29:13.278Z,64.10
2019-05-01T10:34:18.437Z,67.10
2019-05-01T10:39:23.752Z,64.43
2019-05-01T10:44:27.456Z,57.50
2019-05-01T10:49:32.927Z,67.83
2019-05-01T10:54:38.881Z,66.10
2019-05-01T10:59:41.600Z,63.97
2019-05-01T11:04:44.906Z,69.20
2019-05-01T11:09:48.226Z,70.93
2019-05-01T11:14:51.596Z,67.57
2019-05-01T11:19:55.250Z,71.50
2019-05-01T11:24:58.621Z,76.00
2019-05-01T11:30:02.166Z,76.83
2019-05-01T11:35:24.793Z,63.70
2019-05-01T11:40:35.819Z,65.67
2019-05-01T11:45:39.454Z,67.87
2019-05-01T11:50:42.925Z,71.13
2019-05-01T11:55:49.207Z,64.23
2019-05-01T12:00:54.178Z,70.67
2019-05-01T12:05:57.831Z,72.43
2019-05-01T12:11:03.836Z,74.10
2019-05-01T12:16:11.750Z,69.70
2019-05-01T12:21:15.126Z,69.33
2019-05-01T12:26:18.553Z,79.83
2019-05-01T12:31:22.171Z,77.40
2019-05-01T12:36:35.607Z,84.33
2019-05-01T12:41:32.704Z,83.10
2019-05-01T12:46:53.813Z,82.23
2019-05-01T12:52:09.770Z,84.53
2019-05-01T12:57:04.303Z,82.53
2019-05-01T13:02:07.899Z,77.47
2019-05-01T13:07:11.732Z,89.33
2019-05-01T13:12:15.046Z,84.10
2019-05-01T13:17:18.376Z,86.00
2019-05-01T13:22:22.188Z,83.43
2019-05-01T13:27:29.813Z,82.40
2019-05-01T13:32:37.851Z,87.00
2019-05-01T13:37:41.190Z,85.90
2019-05-01T13:42:44.831Z,85.77
2019-05-01T13:47:48.507Z,84.30
2019-05-01T13:52:53.484Z,85.73
2019-05-01T13:57:56.981Z,83.70
2019-05-01T14:03:00.569Z,82.07
2019-05-01T14:08:05.179Z,85.80
2019-05-01T14:13:08.494Z,79.53
2019-05-01T14:18:13.803Z,68.00
2019-05-01T14:23:24.550Z,70.17
2019-05-01T14:28:28.201Z,67.10
2019-05-01T14:33:31.741Z,67.53
2019-05-01T14:38:35.216Z,66.57
2019-05-01T14:43:39.284Z,59.93
2019-05-01T14:48:42.576Z,67.07
2019-05-01T14:53:45.927Z,64.73
2019-05-01T14:58:49.232Z,68.10
2019-05-01T15:03:53.064Z,68.00
2019-05-01T15:08:56.687Z,72.43
2019-05-01T15:14:16.837Z,67.73
2019-05-01T15:19:22.081Z,73.07
2019-05-01T15:24:25.673Z,69.90
2019-05-01T15:29:29.310Z,64.13
2019-05-01T15:34:33.072Z,59.33
2019-05-01T15:39:38.241Z,64.93
2019-05-01T15:44:43.650Z,70.07
2019-05-01T15:49:46.899Z,68.30
2019-05-01T15:54:50.209Z,78.50
2019-05-01T15:59:55.963Z,77.43
2019-05-01T16:04:59.373Z,83.13
2019-05-01T16:10:05.832Z,80.47
2019-05-01T16:15:29.115Z,78.70
2019-05-01T16:20:32.437Z,76.30
2019-05-01T16:25:35.977Z,76.13
2019-05-01T16:30:39.616Z,70.17
2019-05-01T16:35:43.406Z,68.30
2019-05-01T16:41:03.508Z,64.53
2019-05-01T16:46:07.118Z,61.03
2019-05-01T16:51:10.601Z,62.63
2019-05-01T16:56:14.572Z,56.73
2019-05-01T17:01:28.781Z,55.63
2019-05-01T17:06:37.759Z,52.43
2019-05-01T17:11:41.300Z,55.50
2019-05-01T17:16:44.617Z,52.63
2019-05-01T17:21:47.913Z,53.87
2019-05-01T17:26:51.476Z,54.80
2019-05-01T17:31:54.833Z,50.27
2019-05-01T17:37:01.477Z,50.10
2019-05-01T17:42:05.212Z,47.77
2019-05-01T17:47:36.782Z,48.87
2019-05-01T17:52:42.068Z,48.57
2019-05-01T17:57:46.777Z,47.30
2019-05-01T18:02:51.880Z,44.23
2019-05-01T18:08:09.636Z,46.70
2019-05-01T18:13:18.003Z,48.70
2019-05-01T18:18:21.803Z,42.77
2019-05-01T18:23:49.590Z,45.80
2019-05-01T18:29:18.433Z,51.33
2019-05-01T18:34:38.230Z,47.20
2019-05-01T18:39:44.531Z,47.63
2019-05-01T18:45:05.068Z,43.43
2019-05-01T18:50:08.763Z,46.90
2019-05-01T18:55:12.216Z,44.77
2019-05-01T19:00:15.568Z,50.43
2019-05-01T19:05:19.106Z,49.17
2019-05-01T19:10:25.311Z,49.37
2019-05-01T19:15:28.609Z,44.33
2019-05-01T19:20:31.919Z,46.80
2019-05-01T19:25:35.464Z,52.70
2019-05-01T19:30:38.842Z,46.40
2019-05-01T19:35:42.449Z,47.87
2019-05-01T19:40:45.766Z,44.60
2019-05-01T19:45:49.068Z,49.17
2019-05-01T19:50:52.366Z,48.30
2019-05-01T19:55:55.725Z,52.23
2019-05-01T20:00:59.597Z,51.13
2019-05-01T20:06:05.615Z,54.33
2019-05-01T20:11:09.645Z,57.07
2019-05-01T20:16:13.627Z,54.57
2019-05-01T20:21:17.270Z,56.60
2019-05-01T20:26:20.647Z,56.60
2019-05-01T20:31:27.627Z,61.17
2019-05-01T20:36:30.499Z,60.57
2019-05-01T20:41:34.050Z,59.53
2019-05-01T20:46:37.524Z,59.07
2019-05-01T20:51:40.819Z,57.37
2019-05-01T20:56:51.204Z,60.30
2019-05-01T21:01:59.697Z,62.33
2019-05-01T21:07:15.519Z,54.50
2019-05-01T21:12:16.060Z,61.63
2019-05-01T21:17:19.383Z,63.77
2019-05-01T21:22:23.428Z,60.20
2019-05-01T21:27:28.385Z,63.83
2019-05-01T21:32:33.950Z,63.63
2019-05-01T21:37:37.337Z,70.00
2019-05-01T21:42:47.301Z,64.63
2019-05-01T21:47:49.070Z,58.63
2019-05-01T21:52:58.131Z,61.53
2019-05-01T21:57:59.607Z,59.40
2019-05-01T22:03:02.906Z,63.03
2019-05-01T22:08:06.278Z,57.67
2019-05-01T22:13:09.909Z,58.47
2019-05-01T22:18:17.932Z,59.63
2019-05-01T22:23:25.279Z,60.47
2019-05-01T22:28:33.149Z,58.33
2019-05-01T22:33:37.111Z,54.33
2019-05-01T22:38:40.482Z,57.03
2019-05-01T22:43:43.758Z,53.83
2019-05-01T22:48:47.362Z,50.80
2019-05-01T22:53:52.287Z,48.30
2019-05-01T22:58:55.601Z,47.30
2019-05-01T23:04:00.533Z,51.47
2019-05-01T23:09:06.167Z,51.67
2019-05-01T23:14:09.713Z,43.40
2019-05-01T23:19:13.257Z,46.20
2019-05-01T23:24:16.542Z,45.63
2019-05-01T23:29:21.717Z,52.87
2019-05-01T23:34:26.174Z,49.50
2019-05-01T23:39:39.607Z,50.57
2019-05-01T23:44:38.229Z,48.97
2019-05-01T23:49:40.929Z,49.30
2019-05-01T23:54:44.478Z,49.47
2019-05-01T23:59:48.040Z,42.97
